Latest Weather Observations for Yanco

IDN60801

Issued at 8:03 pm EST Friday 22 May 2015 (issued every 30 minutes, with the page automatically refreshed every 10 minutes)

About weather observations | Map of weather stations | Latest weather observations for NSW | Other Formats
Station Details ID: 074037 Name: YANCO AGRICULTURAL INSTITUTE Lat: -34.62 Lon: 146.43 Height: 164.0 m
Data from the previous 72 hours. | See also: Recent months at Yanco
Date/Time
EST
Temp
°C
App
Temp
°C
Dew
Point
Rel
Hum
%
Delta-T
°C
Wind Press
QNH
hPa
Press
MSL
hPa
Rain
since 9 am
mm
Dir
 
Spd
km/h
Gust
km/h
Spd
kts
Gust
kts
22/08:00pm 11.1 8.7 5.2 67 2.7 SSW 7 9 4 5 - - 0.0
22/07:30pm 11.8 9.6 5.2 64 3.1 SSW 6 7 3 4 - - 0.0
22/07:00pm 12.5 9.8 5.7 63 3.2 S 9 11 5 6 - - 0.0
22/06:30pm 13.2 10.1 5.4 59 3.7 S 11 13 6 7 - - 0.0
22/06:00pm 13.8 10.7 5.7 58 3.9 S 11 15 6 8 - - 0.0
22/05:30pm 14.4 11.7 5.7 56 4.2 SSE 9 13 5 7 - - 0.0
22/05:00pm 15.5 12.8 5.7 52 4.7 SSE 9 13 5 7 - - 0.0
22/04:30pm 16.7 13.2 5.3 47 5.5 S 13 20 7 11 - - 0.0
22/04:00pm 17.5 13.6 5.4 45 5.9 S 15 20 8 11 - - 0.0
22/03:30pm 17.9 13.5 4.8 42 6.3 SSW 17 26 9 14 - - 0.0
22/03:00pm 18.0 13.6 4.9 42 6.3 S 17 24 9 13 - - 0.0
22/02:30pm 18.1 14.1 4.7 41 6.5 S 15 24 8 13 - - 0.0
22/02:00pm 18.1 13.0 3.9 39 6.7 SSW 20 24 11 13 - - 0.0
22/01:30pm 18.3 13.9 4.5 40 6.6 S 17 24 9 13 - - 0.0
22/01:00pm 18.2 13.3 4.0 39 6.8 S 19 28 10 15 - - 0.0
22/12:30pm 17.7 13.3 5.0 43 6.1 SSE 17 30 9 16 - - 0.0
22/12:00pm 17.4 13.2 5.7 46 5.7 SSE 17 24 9 13 - - 0.0
22/11:30am 16.7 11.6 5.9 49 5.3 SSE 22 32 12 17 - - 0.0
22/11:00am 15.6 11.2 7.4 58 4.1 SSE 20 30 11 16 - - 0.0
22/10:30am 15.0 11.0 8.3 64 3.4 SSE 19 26 10 14 - - 0.0
22/10:00am 13.1 9.7 9.2 77 2.0 S 17 20 9 11 - - 0.0
22/09:30am 11.8 8.4 9.2 84 1.3 SSW 17 20 9 11 - - 0.0
22/09:00am 10.4 7.3 8.7 89 0.8 SSW 15 19 8 10 - - 0.2
22/08:30am 8.7 7.5 8.1 96 0.3 SW 4 7 2 4 - - 0.2
22/08:00am 7.9 7.3 7.6 98 0.1 CALM 0 4 0 2 - - 0.2
22/07:30am 7.2 6.1 6.9 98 0.1 SW 2 4 1 2 - - 0.2
22/07:00am 7.3 6.6 6.9 97 0.2 CALM 0 0 0 0 - - 0.2
22/06:30am 7.6 6.2 7.3 98 0.1 SW 4 7 2 4 - - 0.2
22/06:00am 7.6 6.6 7.2 97 0.2 SSW 2 2 1 1 - - 0.2
22/05:30am 7.5 5.1 7.1 97 0.2 SW 9 13 5 7 - - 0.2
22/05:00am 8.2 6.2 7.1 93 0.5 SW 7 9 4 5 - - 0.2
22/04:30am 9.1 6.1 7.9 92 0.6 SSW 13 17 7 9 - - 0.2
22/04:00am 8.9 6.3 7.8 93 0.5 S 11 15 6 8 - - 0.2
22/03:30am 8.9 5.5 7.7 92 0.6 SSW 15 19 8 10 - - 0.2
22/03:00am 8.9 6.2 7.5 91 0.7 SSW 11 15 6 8 - - 0.2
22/02:30am 9.2 7.0 7.8 91 0.7 SSW 9 15 5 8 - - 0.2
22/02:00am 9.9 7.0 8.0 88 0.9 SSW 13 19 7 10 - - 0.2
22/01:30am 10.1 7.2 8.2 88 0.9 SSW 13 15 7 8 - - 0.2
22/01:00am 10.4 7.9 8.3 87 1.0 SSW 11 15 6 8 - - 0.2
22/12:30am 10.2 8.5 8.3 88 0.9 SSW 7 9 4 5 - - 0.2
22/12:00am 10.5 8.0 8.4 87 1.0 SSW 11 15 6 8 - - 0.2
 
Date/Time
EST
Temp
°C
App
Temp
°C
Dew
Point
Rel
Hum
%
Delta-T
°C
Wind Press
QNH
hPa
Press
MSL
hPa
Rain
since 9 am
mm
Dir
 
Spd
km/h
Gust
km/h
Spd
kts
Gust
kts
21/11:30pm 10.4 8.8 8.2 86 1.1 S 6 7 3 4 - - 0.2
21/11:00pm 10.7 8.6 8.3 85 1.2 S 9 15 5 8 - - 0.2
21/10:30pm 11.1 8.2 8.1 82 1.5 SW 13 19 7 10 - - 0.2
21/10:00pm 11.8 8.6 8.5 80 1.6 SW 15 20 8 11 - - 0.2
21/09:30pm 12.1 9.0 8.9 81 1.6 SSW 15 20 8 11 - - 0.2
21/09:00pm 12.3 9.7 9.3 82 1.5 SW 13 17 7 9 - - 0.2
21/08:30pm 11.9 9.5 10.0 88 1.0 SW 13 13 7 7 - - 0.2
21/08:00pm 12.2 10.9 9.8 85 1.2 SW 7 9 4 5 - - 0.2
21/07:30pm 12.4 11.3 10.0 85 1.2 SW 6 7 3 4 - - 0.2
21/07:00pm 12.5 11.4 10.0 85 1.3 WSW 6 6 3 3 - - 0.2
21/06:30pm 12.9 11.9 10.3 84 1.4 SSW 6 6 3 3 - - 0.2
21/06:00pm 13.2 12.1 10.0 81 1.7 SW 6 7 3 4 - - 0.2
21/05:30pm 13.5 12.1 9.7 78 2.0 SW 7 7 4 4 - - 0.2
21/05:00pm 14.2 12.3 9.2 72 2.6 SSW 9 11 5 6 - - 0.2
21/04:30pm 14.6 12.0 9.2 70 2.8 SSW 13 17 7 9 - - 0.2
21/04:00pm 14.8 12.3 9.8 72 2.6 SW 13 15 7 8 - - 0.2
21/03:30pm 14.4 12.1 10.4 77 2.1 SSW 13 15 7 8 - - 0.2
21/03:00pm 15.0 13.8 9.4 69 2.9 W 6 9 3 5 - - 0.2
21/02:30pm 14.1 12.9 9.7 75 2.3 SSW 6 7 3 4 - - 0.2
21/02:00pm 13.7 12.7 10.3 80 1.8 SSW 6 9 3 5 - - 0.0
21/01:30pm 13.3 11.2 9.9 80 1.8 SSW 11 15 6 8 - - 0.0
21/01:00pm 13.8 12.4 9.0 73 2.5 WSW 6 9 3 5 - - 0.0
21/12:30pm 13.8 13.3 9.3 74 2.3 W 2 6 1 3 - - 0.0
21/12:00pm 13.2 11.9 9.3 77 2.0 WSW 6 9 3 5 - - 0.0
21/11:30am 13.0 12.2 9.8 81 1.7 WSW 4 7 2 4 - - 0.0
21/11:00am 11.8 11.4 9.9 88 1.0 ENE 2 6 1 3 - - 0.0
21/10:30am 10.6 9.9 10.0 96 0.3 S 4 6 2 3 - - 0.0
21/10:00am 9.9 9.9 9.8 99 0.1 CALM 0 2 0 1 - - 0.0
21/09:30am 9.3 8.4 9.2 99 0.0 N 4 6 2 3 - - 0.0
21/09:00am 9.2 9.0 9.1 99 0.0 CALM 0 0 0 0 - - 0.0
21/08:30am 9.1 8.1 9.0 99 0.0 WSW 4 6 2 3 - - 0.0
21/08:00am 8.8 8.5 8.5 98 0.1 CALM 0 0 0 0 - - 0.0
21/07:30am 8.5 7.3 8.2 98 0.1 NNW 4 6 2 3 - - 0.0
21/07:00am 8.4 6.8 8.1 98 0.1 WSW 6 6 3 3 - - 0.0
21/06:30am 8.4 8.0 8.1 98 0.1 CALM 0 2 0 1 - - 0.0
21/06:00am 8.3 7.1 8.0 98 0.1 N 4 4 2 2 - - 0.0
21/05:30am 7.9 6.6 7.6 98 0.1 N 4 6 2 3 - - 0.0
21/05:00am 7.7 6.3 7.4 98 0.1 NNW 4 6 2 3 - - 0.0
21/04:30am 7.5 6.1 7.1 97 0.2 NNW 4 6 2 3 - - 0.0
21/04:00am 7.5 5.6 6.8 95 0.3 NNW 6 9 3 5 - - 0.0
21/03:30am 8.1 6.1 7.2 94 0.4 N 7 7 4 4 - - 0.0
21/03:00am 8.6 6.9 7.4 92 0.6 NNW 6 6 3 3 - - 0.0
21/02:30am 9.1 8.1 7.5 90 0.8 NW 2 2 1 1 - - 0.0
21/02:00am 9.1 7.8 7.5 90 0.8 NNW 4 4 2 2 - - 0.0
21/01:30am 9.4 8.5 7.7 89 0.8 NNW 2 4 1 2 - - 0.0
21/01:00am 9.8 8.9 7.9 88 0.9 NNW 2 2 1 1 - - 0.0
21/12:30am 9.8 8.6 8.1 89 0.8 NNW 4 6 2 3 - - 0.0
21/12:00am 10.3 9.1 8.2 87 1.0 NW 4 4 2 2 - - 0.0
 
Date/Time
EST
Temp
°C
App
Temp
°C
Dew
Point
Rel
Hum
%
Delta-T
°C
Wind Press
QNH
hPa
Press
MSL
hPa
Rain
since 9 am
mm
Dir
 
Spd
km/h
Gust
km/h
Spd
kts
Gust
kts
20/11:30pm 10.6 9.4 8.2 85 1.2 NW 4 6 2 3 - - 0.0
20/11:00pm 11.0 9.9 8.4 84 1.3 NW 4 4 2 2 - - 0.0
20/10:30pm 11.2 10.0 8.2 82 1.5 NW 4 4 2 2 - - 0.0
20/10:00pm 12.0 10.4 8.1 77 1.9 WSW 6 9 3 5 - - 0.0
20/09:30pm 12.3 11.2 8.6 78 1.9 NW 4 6 2 3 - - 0.0
20/09:00pm 13.1 11.6 8.4 73 2.4 WNW 6 7 3 4 - - 0.0
20/08:30pm 13.7 12.2 8.5 71 2.6 W 6 9 3 5 - - 0.0
20/08:00pm 14.0 12.0 8.6 70 2.7 WSW 9 13 5 7 - - 0.0
20/07:30pm 14.3 12.4 8.9 70 2.8 W 9 11 5 6 - - 0.0
20/07:00pm 14.5 12.7 9.3 71 2.7 WSW 9 13 5 7 - - 0.0
20/06:30pm 14.7 12.9 9.3 70 2.8 W 9 13 5 7 - - 0.0
20/06:00pm 15.1 12.9 9.2 68 3.1 W 11 15 6 8 - - 0.0
20/05:30pm 15.4 13.2 9.5 68 3.1 W 11 15 6 8 - - 0.0
20/05:00pm 15.9 13.8 9.8 67 3.2 W 11 13 6 7 - - 0.0
20/04:30pm 16.4 13.9 9.8 65 3.5 W 13 19 7 10 - - 0.0
20/04:00pm 16.8 14.9 10.4 66 3.4 W 11 17 6 9 - - 0.0
20/03:30pm 17.5 15.0 10.9 65 3.6 W 15 20 8 11 - - 0.0
20/03:00pm 18.2 16.3 11.7 66 3.6 W 13 24 7 13 - - 0.0
20/02:30pm 17.6 14.9 11.6 68 3.3 W 17 22 9 12 - - 0.0
20/02:00pm 17.4 15.1 11.9 70 3.0 W 15 20 8 11 - - 0.0
20/01:30pm 17.2 15.3 11.7 70 3.0 WNW 13 19 7 10 - - 0.0
20/01:00pm 17.1 15.8 12.6 75 2.5 WNW 11 17 6 9 - - 0.0
20/12:30pm 17.5 16.4 13.2 76 2.4 NW 11 17 6 9 - - 0.0
20/12:00pm 17.1 16.0 13.0 77 2.3 NW 11 15 6 8 - - 0.0
20/11:30am 16.9 15.6 13.6 81 1.9 WNW 13 17 7 9 - - 0.0
20/11:00am 16.1 15.0 13.2 83 1.6 WNW 11 17 6 9 - - 0.0
20/10:30am 15.6 14.4 12.9 84 1.5 WNW 11 17 6 9 - - 0.0
20/10:00am 15.2 14.0 12.9 86 1.3 NW 11 15 6 8 - - 0.0
20/09:30am 14.4 12.7 12.6 89 1.0 NW 13 19 7 10 - - 0.0
20/09:00am 13.6 12.2 12.3 92 0.7 NW 11 17 6 9 - - 9.6
20/08:30am 13.1 12.2 12.5 96 0.3 NNW 9 13 5 7 - - 9.6
20/08:00am 12.4 11.3 12.1 98 0.2 NNW 9 13 5 7 - - 9.6
20/07:30am 11.5 10.6 11.3 99 0.1 N 7 11 4 6 - - 9.6
20/07:00am 11.2 10.2 11.0 99 0.1 N 7 13 4 7 - - 9.6
20/06:30am 11.3 10.3 11.1 99 0.1 N 7 9 4 5 - - 9.6
20/06:00am 12.0 10.9 11.8 99 0.1 N 9 11 5 6 - - 9.6
20/05:30am 12.1 10.6 11.8 98 0.2 N 11 13 6 7 - - 9.6
20/05:00am 12.3 10.8 12.0 98 0.2 N 11 13 6 7 - - 9.6
20/04:30am 12.4 11.0 12.1 98 0.2 N 11 15 6 8 - - 9.6
20/04:00am 12.4 11.3 11.9 97 0.3 N 9 11 5 6 - - 9.6
20/03:30am 12.7 11.3 12.2 97 0.3 NNE 11 15 6 8 - - 9.6
20/03:00am 12.8 11.4 12.2 96 0.3 N 11 17 6 9 - - 9.6
20/02:30am 12.7 10.9 12.2 97 0.3 NNE 13 19 7 10 - - 9.6
20/02:00am 12.3 11.1 11.7 96 0.3 N 9 11 5 6 - - 9.4
20/01:30am 12.9 12.2 12.1 95 0.4 N 7 9 4 5 - - 9.4
20/01:00am 12.9 11.8 12.1 95 0.4 NNE 9 13 5 7 - - 9.4
20/12:30am 13.0 11.6 12.2 95 0.4 N 11 13 6 7 - - 9.4
20/12:00am 13.1 11.7 12.2 94 0.5 N 11 15 6 8 - - 9.4
 
Date/Time
EST
Temp
°C
App
Temp
°C
Dew
Point
Rel
Hum
%
Delta-T
°C
Wind Press
QNH
hPa
Press
MSL
hPa
Rain
since 9 am
mm
Dir
 
Spd
km/h
Gust
km/h
Spd
kts
Gust
kts
19/11:30pm 13.1 12.1 12.3 95 0.4 NNE 9 13 5 7 - - 9.4
19/11:00pm 13.2 12.3 12.6 96 0.3 NNE 9 13 5 7 - - 9.4
19/10:30pm 13.0 12.1 12.5 97 0.3 NNE 9 11 5 6 - - 9.4
19/10:00pm 13.3 12.4 12.7 96 0.3 NNE 9 11 5 6 - - 9.4
19/09:30pm 12.9 11.9 12.4 97 0.3 N 9 11 5 6 - - 9.2
19/09:00pm 12.8 12.4 12.5 98 0.2 N 6 7 3 4 - - 9.2
19/08:30pm 12.9 12.6 12.6 98 0.2 N 6 6 3 3 - - 9.2

Other Formats:

Comma delimited format used in spreadsheet applications
http://www.bom.gov.au/fwo/IDN60801/IDN60801.95705.axf

JavaScript Object Notation format (JSON) in row-major order
http://www.bom.gov.au/fwo/IDN60801/IDN60801.95705.json